Detall de PIREP

Printer-friendly versionPDF version

[2015/03/14 09:18:00]
Flight IATA:CT0003
Pilot Number:012
Company ICAO:CAT
Aircraft Type:AT72/F
PAX:68
Departing Airport: LIEA
Destination Airport: LIRF
Alternate Airport:LIRN
Online: VATSIM
Route:MINKA UL5 VALMA
Flight Level:F170
No Slew and time accel
No pause
Crash detect
Detect pilot in Cockpit between each 30 and 45 minutes
09:18 Zero fuel Weight: 42931 Lbs, Fuel Weight: 4909 Lbs
09:18 VATSIM:LIEA 140850Z 27004KT 230V300 9999 SCT025 14/09 Q1019
09:18 VATSIM:LIRF 140850Z 08005KT 050V130 CAVOK 11/05 Q1019 NOSIG
09:20 Parking Brakes off
09:24 Take-off
09:24 Take off Weight: 47783 Lbs
09:24 Wind: 260º @ 004 Knots Heading: 203º
09:24 POS N40º 37´ 52´´ E008º 17´ 25´´
09:24 Gear Up: 132 Knots
09:24 Flaps:1 at 132 Knots
09:25 Flaps:0 at 172 Knots
09:37 TOC
09:37 Fuel Weight: 4411 Lb
09:39 Wind:267º@029 Knots Heading: 065º Ground Speed: 289 Knots Altitude 17165 ft
09:54 Wind:261º@026 Knots Heading: 068º Ground Speed: 307 Knots Altitude 17158 ft
10:08 TOD
10:08 Fuel Weight: 3481 Lb
10:09 Wind:276º@023 Knots Heading: 344º Ground Speed: 281 Knots Altitude 16492 ft
10:18 Flaps:1 at 179 Knots
10:19 Gear Down: 142 Knots
10:19 Flaps:2 at 141 Knots
10:20 Flaps:1 at 134 Knots
10:23 Flaps:2 at 143 Knots
10:24 Wind:070º@004 Knots Heading: 160º Ground Speed: 130 Knots Altitude 2112 ft
10:27 TouchDown:Rate -189 ft/min Speed: 114 Knots
10:27 Flaps:0 at 88 Knots
10:27 VATSIM:LIRF 140850Z 08005KT 050V130 CAVOK 11/05 Q1019 NOSIG
10:27 Land
10:27 Wind:084º@004 Knots
10:27 Heading: 158º
10:27 Flight Duration: 01:03
10:27 Landing Weight: 46114 Lbs
10:27 POS N41º 50´ 05´´ E012º 16´ 04´´
10:32 Parking brakes on
10:32 Block to Block Duration: 01:12
10:32 Final Fuel: 3150 Lbls
10:32 Spent Fuel: 1759 Lbls
10:32 Flight Length: 267 NM
10:32 TOD Land Length: 64 NM

Exportar CSV

Powered by Drupal - Modified by Danger4k